Time;durP1;ratioP1;P1;durP2;ratioP2;P2;SDS_P1;SDS_P2;PMS_P1;PMS_P2;Temp;Humidity;BMP_temperature;BMP_pressure;BME280_temperature;BME280_humidity;BME280_pressure;Samples;Min_cycle;Max_cycle;Signal;HPM_P1;HPM_P2
2022/11/24 00:01:51;;;;;;;11.37;5.80;;;;;;;4.02;100.00;100069.28;7389326;19;20399;-56
2022/11/24 00:04:21;;;;;;;10.57;5.83;;;;;;;3.92;100.00;100074.66;7392081;19;20436;-59
2022/11/24 00:06:52;;;;;;;15.80;6.93;;;;;;;4.18;100.00;100077.81;7387779;19;20427;-61
2022/11/24 00:09:24;;;;;;;13.40;5.83;;;;;;;4.51;100.00;100064.28;7390986;19;20381;-59
2022/11/24 00:11:53;;;;;;;10.33;6.13;;;;;;;4.30;100.00;100072.50;7390153;19;20480;-61
2022/11/24 00:14:23;;;;;;;12.50;6.57;;;;;;;4.13;100.00;100067.34;7391918;19;20412;-57
2022/11/24 00:16:53;;;;;;;23.20;7.03;;;;;;;4.10;100.00;100066.28;7387730;19;20419;-61
2022/11/24 00:19:22;;;;;;;13.00;5.70;;;;;;;3.94;100.00;100069.63;7392088;19;20403;-62
2022/11/24 00:21:52;;;;;;;10.67;6.00;;;;;;;3.96;100.00;100068.03;7388880;19;20515;-61
2022/11/24 00:24:24;;;;;;;13.63;5.30;;;;;;;3.80;100.00;100069.72;7391406;19;20415;-57
2022/11/24 00:26:54;;;;;;;9.90;5.27;;;;;;;3.80;100.00;100067.19;7386684;19;20450;-61
2022/11/24 00:29:23;;;;;;;15.33;6.23;;;;;;;3.73;100.00;100062.47;7389790;19;20392;-57
2022/11/24 00:31:52;;;;;;;18.97;7.53;;;;;;;3.87;100.00;100058.19;7386910;19;20419;-61
2022/11/24 00:34:22;;;;;;;13.23;5.03;;;;;;;3.86;100.00;100054.78;7391166;19;20454;-61
2022/11/24 00:36:51;;;;;;;15.20;6.07;;;;;;;3.78;100.00;100055.97;7386685;19;20416;-62
2022/11/24 00:39:25;;;;;;;15.70;5.90;;;;;;;3.89;100.00;100043.81;7391117;19;20391;-61
2022/11/24 00:41:54;;;;;;;14.50;6.00;;;;;;;4.14;100.00;100048.66;7386840;19;20424;-62
2022/11/24 00:44:24;;;;;;;13.90;5.57;;;;;;;4.00;100.00;100044.47;7390798;19;20415;-61
2022/11/24 00:46:53;;;;;;;11.30;6.10;;;;;;;4.01;100.00;100039.41;7386346;19;20418;-57
2022/11/24 00:49:23;;;;;;;11.67;6.20;;;;;;;3.75;100.00;100043.06;7389621;19;20471;-58
2022/11/24 00:51:52;;;;;;;13.90;6.40;;;;;;;3.88;100.00;100036.97;7387010;19;20516;-56
2022/11/24 00:54:25;;;;;;;18.23;6.87;;;;;;;4.37;100.00;100031.22;7390326;19;20800;-60
2022/11/24 00:56:54;;;;;;;11.30;6.70;;;;;;;4.26;100.00;100033.13;7385425;19;21222;-60
2022/11/24 00:59:24;;;;;;;10.97;6.70;;;;;;;4.40;100.00;100033.03;7390714;19;20387;-60
2022/11/24 01:01:53;;;;;;;17.43;6.10;;;;;;;4.38;100.00;100032.97;7384925;19;20447;-61
2022/11/24 01:04:23;;;;;;;16.00;6.80;;;;;;;4.29;100.00;100029.88;7389084;19;21132;-55
2022/11/24 01:06:52;;;;;;;11.87;6.67;;;;;;;4.18;100.00;100025.06;7384157;19;20412;-56
2022/11/24 01:09:25;;;;;;;13.90;6.17;;;;;;;4.22;100.00;100023.56;7389518;19;20411;-58
2022/11/24 01:12:04;;;;;;;8.43;5.50;;;;;;;4.08;100.00;100029.56;7386650;19;20466;-58
2022/11/24 01:14:34;;;;;;;13.37;6.50;;;;;;;4.25;100.00;100027.97;7389655;19;20435;-61
2022/11/24 01:17:04;;;;;;;16.50;6.97;;;;;;;4.16;100.00;100023.22;7386828;19;20987;-58
2022/11/24 01:19:34;;;;;;;14.23;6.23;;;;;;;3.91;100.00;100035.47;7389937;19;20415;-58
2022/11/24 01:22:03;;;;;;;14.73;5.87;;;;;;;4.11;100.00;100029.75;7386476;19;20407;-60
2022/11/24 01:24:35;;;;;;;12.53;6.30;;;;;;;4.07;100.00;100031.25;7389600;19;20436;-60
2022/11/24 01:27:05;;;;;;;13.00;5.93;;;;;;;4.21;100.00;100026.03;7387590;19;20427;-57
2022/11/24 01:29:35;;;;;;;15.27;6.50;;;;;;;4.26;100.00;100029.72;7388147;19;20391;-56
2022/11/24 01:32:04;;;;;;;14.90;6.53;;;;;;;4.25;100.00;100017.75;7385155;19;20411;-59
2022/11/24 01:34:33;;;;;;;10.63;6.10;;;;;;;4.21;100.00;100020.91;7387023;19;20443;-60
2022/11/24 01:37:03;;;;;;;16.93;9.10;;;;;;;4.10;100.00;100013.53;7390047;19;20400;-61
2022/11/24 01:39:35;;;;;;;14.73;6.70;;;;;;;4.37;100.00;100021.00;7387192;19;20400;-61
2022/11/24 01:42:05;;;;;;;10.33;5.80;;;;;;;4.22;100.00;100027.78;7387017;19;20431;-61
2022/11/24 01:44:35;;;;;;;13.37;7.33;;;;;;;3.87;100.00;100036.09;7393182;19;20459;-60
2022/11/24 01:47:07;;;;;;;20.93;8.60;;;;;;;4.02;100.00;100025.00;7385741;19;20427;-60
2022/11/24 01:49:40;;;;;;;17.40;6.57;;;;;;;4.07;100.00;100028.69;7388361;19;20400;-60
2022/11/24 01:52:14;;;;;;;14.67;6.67;;;;;;;3.96;100.00;100029.75;7386290;19;20427;-61
2022/11/24 01:54:50;;;;;;;16.30;6.43;;;;;;;4.02;100.00;100025.88;7388858;19;20415;-60
2022/11/24 01:57:22;;;;;;;23.37;9.60;;;;;;;3.96;100.00;100029.75;7386819;19;20414;-60
2022/11/24 01:59:54;;;;;;;16.70;6.90;;;;;;;3.90;100.00;100033.72;7390877;19;20386;-59
2022/11/24 02:02:24;;;;;;;15.00;7.03;;;;;;;4.21;100.00;100032.03;7387933;19;20430;-61
2022/11/24 02:04:53;;;;;;;17.50;7.30;;;;;;;4.03;100.00;100037.84;7386642;19;20431;-59
2022/11/24 02:07:23;;;;;;;17.90;6.80;;;;;;;4.07;100.00;100036.34;7383055;19;20439;-57
2022/11/24 02:09:57;;;;;;;17.13;7.00;;;;;;;4.03;100.00;100036.97;7387164;19;20415;-61
2022/11/24 02:12:28;;;;;;;15.80;6.90;;;;;;;4.30;100.00;100036.75;7384267;19;20438;-61
2022/11/24 02:14:57;;;;;;;14.20;6.80;;;;;;;4.30;100.00;100044.41;7396050;19;20440;-61
2022/11/24 02:17:27;;;;;;;11.83;6.97;;;;;;;4.03;100.00;100036.97;7396189;19;20434;-61
2022/11/24 02:19:58;;;;;;;13.37;7.43;;;;;;;3.95;100.00;100049.28;7397092;19;20395;-59
2022/11/24 02:22:34;;;;;;;13.43;6.70;;;;;;;3.82;100.00;100047.72;7396104;19;20434;-60
2022/11/24 02:25:11;;;;;;;17.03;7.00;;;;;;;3.98;100.00;100041.81;7395666;19;20419;-58
2022/11/24 02:27:44;;;;;;;16.77;7.87;;;;;;;4.01;100.00;100043.66;7396495;19;20391;-61
2022/11/24 02:30:22;;;;;;;15.77;6.93;;;;;;;4.42;100.00;100046.78;7392702;19;20626;-60
2022/11/24 02:32:51;;;;;;;14.70;7.30;;;;;;;4.26;100.00;100051.03;7396441;19;20929;-61
2022/11/24 02:35:21;;;;;;;10.73;6.40;;;;;;;4.13;100.00;100044.34;7385110;19;20428;-62
2022/11/24 02:37:51;;;;;;;16.17;6.93;;;;;;;4.15;100.00;100050.41;7395890;19;20909;-60
2022/11/24 02:40:24;;;;;;;14.40;6.87;;;;;;;4.16;100.00;100041.97;7394299;19;20996;-60
2022/11/24 02:42:58;;;;;;;15.37;6.87;;;;;;;4.15;100.00;100050.41;7396913;19;20933;-61
2022/11/24 02:45:28;;;;;;;15.63;6.60;;;;;;;4.15;100.00;100057.22;7390505;19;20435;-62
2022/11/24 02:47:57;;;;;;;13.63;6.90;;;;;;;4.01;100.00;100058.97;7396812;19;20414;-63
2022/11/24 02:50:27;;;;;;;18.13;7.17;;;;;;;4.23;100.00;100055.06;7390991;19;20964;-59
2022/11/24 02:52:56;;;;;;;15.23;8.43;;;;;;;4.12;100.00;100063.03;7396078;19;20421;-61
2022/11/24 02:55:26;;;;;;;11.23;6.77;;;;;;;4.01;100.00;100069.19;7392533;19;20451;-62
2022/11/24 02:57:58;;;;;;;17.60;6.37;;;;;;;4.05;100.00;100066.00;7400328;19;20423;-60
2022/11/24 03:00:27;;;;;;;9.53;6.67;;;;;;;3.87;100.00;100060.72;7393819;19;20431;-61
2022/11/24 03:02:57;;;;;;;11.50;6.47;;;;;;;3.82;100.00;100073.25;7395906;19;20418;-57
2022/11/24 03:05:26;;;;;;;12.73;6.30;;;;;;;3.87;100.00;100082.03;7392043;19;20399;-59
2022/11/24 03:07:55;;;;;;;18.67;7.07;;;;;;;4.08;100.00;100076.41;7395037;19;20380;-59
2022/11/24 03:10:27;;;;;;;15.10;6.30;;;;;;;4.23;100.00;100080.63;7391627;19;20842;-60
2022/11/24 03:12:59;;;;;;;18.27;7.67;;;;;;;4.18;100.00;100086.38;7395208;19;20427;-58
2022/11/24 03:15:29;;;;;;;11.33;6.47;;;;;;;4.13;100.00;100080.09;7391788;19;20435;-56
2022/11/24 03:17:58;;;;;;;17.17;6.70;;;;;;;4.21;100.00;100078.00;7395305;19;20388;-60
2022/11/24 03:20:28;;;;;;;10.67;6.27;;;;;;;4.39;100.00;100082.34;7392799;19;20411;-62
2022/11/24 03:22:58;;;;;;;13.97;6.60;;;;;;;4.17;100.00;100079.47;7395122;19;20427;-64
2022/11/24 03:25:27;;;;;;;16.73;7.00;;;;;;;4.25;100.00;100089.25;7392621;19;20403;-61
2022/11/24 03:28:00;;;;;;;12.50;6.43;;;;;;;4.21;100.00;100094.97;7394676;19;20408;-61
2022/11/24 03:30:29;;;;;;;11.57;6.43;;;;;;;3.93;100.00;100101.94;7392136;19;20447;-61
2022/11/24 03:32:59;;;;;;;13.40;6.93;;;;;;;3.82;100.00;100103.88;7396904;19;20384;-61
2022/11/24 03:35:28;;;;;;;13.83;6.00;;;;;;;3.76;100.00;100109.47;7373855;19;20430;-62
2022/11/24 03:37:57;;;;;;;8.83;5.07;;;;;;;3.95;100.00;100104.56;7394366;19;20388;-62
2022/11/24 03:40:27;;;;;;;12.27;6.67;;;;;;;3.79;100.00;100116.44;7391974;19;20403;-63
2022/11/24 03:42:56;;;;;;;14.40;6.47;;;;;;;3.80;100.00;100120.78;7398170;19;20408;-62
2022/11/24 03:45:28;;;;;;;16.60;7.63;;;;;;;3.73;100.00;100123.72;7389744;19;20387;-61
2022/11/24 03:48:14;;;;;;;15.23;7.57;;;;;;;3.86;100.00;100125.34;7394232;19;20467;-59
2022/11/24 03:50:44;;;;;;;12.43;6.90;;;;;;;3.80;100.00;100136.09;7391394;19;20849;-60
2022/11/24 03:53:13;;;;;;;16.20;8.03;;;;;;;3.71;100.00;100128.75;7394378;19;20433;-61
2022/11/24 03:55:44;;;;;;;15.07;6.63;;;;;;;3.80;100.00;100122.44;7389975;19;20486;-62
2022/11/24 03:58:14;;;;;;;12.30;6.47;;;;;;;4.06;100.00;100126.50;7393388;19;20400;-57
2022/11/24 04:00:47;;;;;;;12.47;7.73;;;;;;;4.10;100.00;100132.66;7391924;19;20403;-61
2022/11/24 04:03:16;;;;;;;14.07;8.43;;;;;;;4.20;100.00;100124.72;7394881;19;20380;-59
2022/11/24 04:05:46;;;;;;;15.00;7.20;;;;;;;4.14;100.00;100135.47;7388294;19;20419;-61
2022/11/24 04:08:16;;;;;;;10.10;6.07;;;;;;;3.99;100.00;100139.72;7393242;19;20926;-57
2022/11/24 04:10:45;;;;;;;11.67;6.40;;;;;;;4.12;100.00;100143.84;7390499;19;20408;-61
2022/11/24 04:13:14;;;;;;;13.53;7.57;;;;;;;4.04;100.00;100151.06;7393505;19;20407;-60
2022/11/24 04:15:46;;;;;;;15.27;7.40;;;;;;;3.99;100.00;100155.03;7387585;19;20952;-60
2022/11/24 04:18:16;;;;;;;8.73;5.90;;;;;;;3.90;100.00;100169.00;7393007;19;20425;-59
2022/11/24 04:20:46;;;;;;;13.73;7.00;;;;;;;3.89;100.00;100167.22;7390643;19;20987;-61
2022/11/24 04:23:15;;;;;;;16.27;7.40;;;;;;;3.81;100.00;100163.34;7393231;19;20961;-59
2022/11/24 04:25:45;;;;;;;15.90;7.80;;;;;;;3.82;100.00;100171.88;7387930;19;20407;-60
2022/11/24 04:28:14;;;;;;;16.00;7.07;;;;;;;3.93;100.00;100168.28;7392757;19;20396;-60
2022/11/24 04:30:46;;;;;;;13.30;7.23;;;;;;;3.89;100.00;100180.00;7384199;19;20419;-61
2022/11/24 04:33:16;;;;;;;24.20;10.27;;;;;;;3.99;100.00;100181.41;7398160;19;20423;-63
2022/11/24 04:35:45;;;;;;;13.00;6.40;;;;;;;3.94;100.00;100175.16;7384077;19;20996;-59
2022/11/24 04:38:15;;;;;;;19.00;7.80;;;;;;;4.13;100.00;100177.13;7389587;19;20422;-62
2022/11/24 04:41:05;;;;;;;17.20;6.70;;;;;;;4.43;100.00;100177.16;7390216;19;20486;-60
2022/11/24 04:43:34;;;;;;;15.90;7.20;;;;;;;4.61;100.00;100181.53;7392301;19;20416;-55
2022/11/24 04:46:13;;;;;;;16.10;7.33;;;;;;;4.76;100.00;100191.72;7390989;19;20399;-61
2022/11/24 04:48:43;;;;;;;20.00;9.00;;;;;;;4.87;100.00;100184.66;7391907;19;20384;-60
2022/11/24 04:51:14;;;;;;;12.97;7.10;;;;;;;4.91;100.00;100185.75;7388794;19;20435;-60
2022/11/24 04:53:44;;;;;;;16.23;8.17;;;;;;;4.89;100.00;100192.44;7391909;19;20957;-61
2022/11/24 04:56:13;;;;;;;11.67;6.60;;;;;;;5.05;100.00;100199.25;7390722;19;20434;-61
2022/11/24 04:58:43;;;;;;;12.70;6.70;;;;;;;4.97;100.00;100202.28;7391430;19;20903;-61
2022/11/24 05:01:15;;;;;;;11.80;6.20;;;;;;;5.04;100.00;100207.75;7389762;19;20789;-59
2022/11/24 05:03:44;;;;;;;11.57;6.70;;;;;;;5.16;100.00;100210.97;7391667;19;20404;-61
2022/11/24 05:06:14;;;;;;;12.43;6.77;;;;;;;5.15;100.00;100219.44;7389338;19;20404;-57
2022/11/24 05:08:43;;;;;;;16.33;7.73;;;;;;;4.99;100.00;100226.25;7391187;19;21292;-61
2022/11/24 05:11:13;;;;;;;12.93;6.60;;;;;;;4.78;100.00;100230.16;7387831;19;20431;-62
2022/11/24 05:13:42;;;;;;;11.47;6.47;;;;;;;4.54;100.00;100233.06;7391563;19;20409;-60
2022/11/24 05:16:14;;;;;;;16.27;6.57;;;;;;;4.48;100.00;100240.38;7389221;19;20416;-60
2022/11/24 05:18:44;;;;;;;16.93;6.90;;;;;;;4.49;100.00;100239.59;7390565;19;20407;-57
2022/11/24 05:21:13;;;;;;;13.07;7.20;;;;;;;4.43;100.00;100238.47;7389103;19;20419;-59
2022/11/24 05:23:43;;;;;;;17.73;7.03;;;;;;;4.31;100.00;100243.72;7390598;19;20384;-61
2022/11/24 05:26:15;;;;;;;13.23;6.77;;;;;;;4.39;100.00;100244.19;7388904;19;20404;-61
2022/11/24 05:28:45;;;;;;;18.77;6.27;;;;;;;4.58;100.00;100240.13;7393098;19;20402;-57
2022/11/24 05:31:17;;;;;;;13.73;6.57;;;;;;;4.78;100.00;100253.19;7388388;19;20786;-62
2022/11/24 05:33:47;;;;;;;12.93;6.60;;;;;;;4.79;100.00;100254.94;7390771;19;20809;-62
2022/11/24 05:38:58;;;;;;;13.27;6.63;;;;;;;4.93;100.00;100250.63;7390156;19;20399;-61
2022/11/24 05:41:28;;;;;;;15.93;7.27;;;;;;;5.06;100.00;100255.63;7388548;19;20443;-61
2022/11/24 05:43:58;;;;;;;11.00;5.63;;;;;;;4.71;100.00;100252.81;7390304;19;20396;-61
2022/11/24 05:46:30;;;;;;;18.63;7.00;;;;;;;4.78;100.00;100266.84;7387883;19;20407;-59
2022/11/24 05:49:00;;;;;;;16.30;7.43;;;;;;;4.42;100.00;100272.44;7391401;19;20392;-62
2022/11/24 05:51:30;;;;;;;12.07;5.97;;;;;;;4.29;100.00;100269.97;7393216;19;20454;-62
2022/11/24 05:53:59;;;;;;;13.33;6.60;;;;;;;4.28;100.00;100279.31;7397842;19;20370;-60
2022/11/24 05:56:29;;;;;;;16.30;6.70;;;;;;;4.62;100.00;100275.31;7394327;19;20760;-60
2022/11/24 05:58:58;;;;;;;17.60;6.13;;;;;;;4.77;100.00;100282.09;7397104;19;20415;-59
2022/11/24 06:01:27;;;;;;;19.97;6.63;;;;;;;4.73;100.00;100275.94;7395374;19;20428;-59
2022/11/24 06:03:59;;;;;;;13.33;6.07;;;;;;;5.14;100.00;100279.06;7394479;19;20387;-63
2022/11/24 06:06:29;;;;;;;16.17;6.60;;;;;;;5.22;100.00;100275.25;7396401;19;20435;-61
2022/11/24 06:08:58;;;;;;;11.27;6.30;;;;;;;5.25;100.00;100277.09;7400776;19;20923;-61
2022/11/24 06:11:28;;;;;;;12.57;6.70;;;;;;;5.35;100.00;100270.81;7394003;19;20428;-60
2022/11/24 06:13:58;;;;;;;14.00;6.50;;;;;;;5.50;100.00;100281.88;7400178;19;20424;-60
2022/11/24 06:16:27;;;;;;;12.47;6.27;;;;;;;5.37;100.00;100274.34;7394922;19;20412;-59
2022/11/24 06:18:59;;;;;;;18.30;6.07;;;;;;;5.40;100.00;100279.63;7396623;19;20417;-56
2022/11/24 06:21:29;;;;;;;15.97;6.90;;;;;;;5.32;100.00;100293.69;7393276;19;20443;-64
2022/11/24 06:23:59;;;;;;;20.53;6.73;;;;;;;4.86;100.00;100303.06;7396882;19;20979;-61
2022/11/24 06:26:28;;;;;;;19.13;6.60;;;;;;;4.63;100.00;100306.84;7394545;19;20415;-59
2022/11/24 06:28:58;;;;;;;20.30;7.50;;;;;;;4.46;100.00;100309.28;7396725;19;20459;-60
2022/11/24 06:31:27;;;;;;;15.73;7.60;;;;;;;4.54;100.00;100308.06;7394489;19;20431;-58
2022/11/24 06:34:00;;;;;;;14.60;6.70;;;;;;;4.75;100.00;100304.09;7396276;19;20383;-59
2022/11/24 06:36:29;;;;;;;19.10;7.13;;;;;;;5.13;100.00;100315.69;7387511;19;20444;-60
2022/11/24 06:38:59;;;;;;;17.77;7.17;;;;;;;5.09;100.00;100312.03;7397299;19;20396;-57
2022/11/24 06:41:28;;;;;;;19.30;6.93;;;;;;;5.16;100.00;100325.16;7395773;19;20423;-60
2022/11/24 06:43:58;;;;;;;15.90;7.00;;;;;;;5.24;100.00;100334.19;7400569;19;20400;-59
2022/11/24 06:46:28;;;;;;;17.53;6.73;;;;;;;5.33;100.00;100332.13;7393696;19;20443;-57
2022/11/24 06:49:01;;;;;;;21.30;7.53;;;;;;;5.09;100.00;100331.63;7399946;19;20412;-62
2022/11/24 06:51:30;;;;;;;14.07;6.70;;;;;;;5.23;100.00;100323.06;7393845;19;20994;-61
2022/11/24 06:54:00;;;;;;;19.33;8.07;;;;;;;5.30;100.00;100328.53;7396197;19;20423;-60
2022/11/24 06:56:30;;;;;;;15.97;6.50;;;;;;;5.15;100.00;100334.53;7390717;19;20973;-57
2022/11/24 06:58:59;;;;;;;17.30;7.27;;;;;;;5.47;100.00;100334.56;7395747;19;20509;-60
2022/11/24 07:01:31;;;;;;;17.73;8.50;;;;;;;5.19;100.00;100344.16;7390374;19;20392;-59
2022/11/24 07:04:03;;;;;;;14.00;6.10;;;;;;;5.31;100.00;100350.75;7397337;19;20397;-60
2022/11/24 07:06:33;;;;;;;16.73;7.63;;;;;;;5.20;100.00;100353.59;7388472;19;20403;-61
2022/11/24 07:09:02;;;;;;;16.43;6.73;;;;;;;5.18;100.00;100355.16;7392269;19;20391;-60
2022/11/24 07:11:31;;;;;;;17.43;7.80;;;;;;;4.91;100.00;100365.56;7388492;19;20423;-60
2022/11/24 07:14:01;;;;;;;18.40;7.17;;;;;;;4.80;100.00;100361.50;7391553;19;20428;-63
2022/11/24 07:16:30;;;;;;;19.03;7.93;;;;;;;4.75;100.00;100378.22;7390320;19;20396;-61
2022/11/24 07:19:03;;;;;;;17.33;7.60;;;;;;;4.88;100.00;100375.63;7393288;19;20764;-58
2022/11/24 07:21:32;;;;;;;22.07;7.27;;;;;;;4.78;100.00;100378.44;7391978;19;20962;-61
2022/11/24 07:24:01;;;;;;;19.17;7.30;;;;;;;5.06;100.00;100377.47;7393967;19;20379;-61
2022/11/24 07:26:35;;;;;;;29.53;7.77;;;;;;;4.76;100.00;100380.88;7389137;19;20407;-60
2022/11/24 07:29:06;;;;;;;18.67;7.67;;;;;;;4.64;100.00;100381.06;7394010;19;20394;-61
2022/11/24 07:31:35;;;;;;;15.80;6.83;;;;;;;4.48;100.00;100388.56;7390237;19;20772;-59
2022/11/24 07:34:08;;;;;;;18.33;7.30;;;;;;;4.54;100.00;100382.19;7393844;19;20435;-61
2022/11/24 07:36:37;;;;;;;27.97;8.50;;;;;;;4.49;100.00;100391.22;7389016;19;20394;-61
2022/11/24 07:39:07;;;;;;;18.27;7.70;;;;;;;4.38;100.00;100398.25;7393154;19;20412;-61
2022/11/24 07:41:37;;;;;;;16.10;7.10;;;;;;;4.37;100.00;100395.59;7389201;19;22674;-58
2022/11/24 07:44:07;;;;;;;13.37;7.37;;;;;;;4.34;100.00;100398.84;7394082;19;20420;-61
2022/11/24 07:46:36;;;;;;;24.63;8.23;;;;;;;4.33;100.00;100399.63;7388559;19;20376;-59
2022/11/24 07:49:08;;;;;;;14.83;8.27;;;;;;;4.41;100.00;100402.66;7392952;19;20388;-59
2022/11/24 07:51:38;;;;;;;20.10;8.23;;;;;;;4.40;100.00;100400.88;7390173;19;20428;-58
2022/11/24 07:54:07;;;;;;;18.43;8.53;;;;;;;4.41;100.00;100402.66;7392074;19;21193;-59
2022/11/24 07:56:37;;;;;;;20.63;10.40;;;;;;;4.44;100.00;100393.50;7389563;19;20427;-61
2022/11/24 07:59:07;;;;;;;22.67;9.17;;;;;;;4.43;100.00;100390.84;7393131;19;20396;-59
2022/11/24 08:01:36;;;;;;;17.43;7.53;;;;;;;4.37;100.00;100395.59;7367706;19;20424;-60
2022/11/24 08:04:09;;;;;;;24.30;7.73;;;;;;;4.36;100.00;100399.81;7391779;19;20492;-61
2022/11/24 08:06:38;;;;;;;26.30;9.47;;;;;;;4.35;100.00;100410.81;7388142;19;20415;-58
2022/11/24 08:09:15;;;;;;;15.93;7.90;;;;;;;4.36;100.00;100399.81;7392616;19;20391;-61
2022/11/24 08:11:44;;;;;;;30.80;9.37;;;;;;;4.40;100.00;100401.78;7387743;19;20407;-57
2022/11/24 08:14:14;;;;;;;20.40;7.90;;;;;;;4.37;100.00;100403.25;7391657;19;20399;-61
2022/11/24 08:16:46;;;;;;;21.33;8.00;;;;;;;4.45;100.00;100408.03;7387392;19;20822;-59
2022/11/24 08:19:18;;;;;;;19.63;9.33;;;;;;;4.52;100.00;100404.19;7392598;19;20384;-58
2022/11/24 08:21:48;;;;;;;19.60;7.83;;;;;;;4.55;100.00;100396.72;7389262;19;20412;-61
2022/11/24 08:24:17;;;;;;;26.77;9.87;;;;;;;4.59;100.00;100395.22;7393079;19;20418;-61
2022/11/24 08:26:47;;;;;;;25.13;9.90;;;;;;;4.64;100.00;100403.16;7387619;19;20423;-61
2022/11/24 08:29:16;;;;;;;21.63;9.47;;;;;;;4.69;100.00;100404.31;7391581;19;20401;-62
2022/11/24 08:31:46;;;;;;;20.37;9.23;;;;;;;4.69;100.00;100410.31;7388244;19;20411;-60
2022/11/24 08:34:15;;;;;;;22.63;8.87;;;;;;;4.66;100.00;100407.56;7390996;19;21290;-59
2022/11/24 08:36:47;;;;;;;17.87;9.37;;;;;;;4.71;100.00;100413.84;7387960;19;20492;-59
2022/11/24 08:39:17;;;;;;;23.67;9.60;;;;;;;4.77;100.00;100418.44;7393330;19;20399;-59
2022/11/24 08:41:47;;;;;;;24.97;10.93;;;;;;;4.79;100.00;100410.88;7387458;19;20428;-61
2022/11/24 08:44:17;;;;;;;18.33;10.40;;;;;;;4.80;100.00;100417.72;7392292;19;20771;-61
2022/11/24 08:46:46;;;;;;;16.03;10.20;;;;;;;4.82;100.00;100421.28;7384768;19;20415;-61
2022/11/24 08:49:17;;;;;;;24.00;10.47;;;;;;;4.83;100.00;100417.94;7394157;19;20389;-62
2022/11/24 08:51:50;;;;;;;21.53;10.47;;;;;;;4.85;100.00;100429.13;7388504;19;20444;-58
2022/11/24 08:54:20;;;;;;;25.57;11.00;;;;;;;4.84;100.00;100424.81;7390398;19;20427;-58
2022/11/24 08:56:50;;;;;;;21.53;9.90;;;;;;;5.33;100.00;100423.38;7387565;19;20412;-60
2022/11/24 08:59:20;;;;;;;22.50;11.07;;;;;;;5.29;100.00;100429.09;7391648;19;20392;-61
2022/11/24 09:01:49;;;;;;;28.63;9.50;;;;;;;5.48;100.00;100429.34;7370474;19;20416;-56
2022/11/24 09:04:19;;;;;;;22.20;9.13;;;;;;;5.62;100.00;100427.59;7391358;19;20405;-60
2022/11/24 09:06:51;;;;;;;27.10;11.97;;;;;;;5.75;100.00;100438.53;7386409;19;20420;-63
2022/11/24 09:09:21;;;;;;;20.13;9.53;;;;;;;5.81;100.00;100446.53;7391466;19;20764;-58
2022/11/24 09:11:50;;;;;;;20.33;9.33;;;;;;;5.62;100.00;100454.84;7386109;19;20404;-61
2022/11/24 09:14:20;;;;;;;17.33;8.60;;;;;;;5.67;100.00;100456.00;7390083;19;20435;-61
2022/11/24 09:16:52;;;;;;;15.33;7.70;;;;;;;5.67;100.00;100453.44;7389028;19;20405;-59
2022/11/24 09:19:22;;;;;;;20.27;9.13;;;;;;;5.60;100.00;100462.47;7390772;19;20392;-61
2022/11/24 09:21:54;;;;;;;16.60;7.40;;;;;;;6.01;100.00;100470.69;7386455;19;20410;-60
2022/11/24 09:24:23;;;;;;;18.30;8.17;;;;;;;6.02;100.00;100475.06;7386920;19;20438;-59
2022/11/24 09:26:55;;;;;;;15.07;8.40;;;;;;;6.07;100.00;100485.56;7389512;19;20437;-62
2022/11/24 09:29:25;;;;;;;20.00;8.60;;;;;;;6.08;100.00;100492.44;7390506;19;20387;-61
2022/11/24 09:31:54;;;;;;;17.00;8.30;;;;;;;6.03;100.00;100501.53;7384648;19;20429;-57
2022/11/24 09:34:24;;;;;;;21.03;7.47;;;;;;;6.15;100.00;100509.06;7389791;19;20447;-61
2022/11/24 09:36:57;;;;;;;16.77;8.17;;;;;;;6.34;100.00;100511.81;7387402;19;20426;-61
2022/11/24 09:39:26;;;;;;;20.30;8.93;;;;;;;6.32;100.00;100512.53;7390530;19;20384;-62
2022/11/24 09:42:05;;;;;;;18.70;7.30;;;;;;;6.35;100.00;100515.25;7385635;19;20425;-62
2022/11/24 09:44:47;;;;;;;21.97;7.80;;;;;;;6.33;100.00;100525.44;7390018;19;20947;-60
2022/11/24 09:47:22;;;;;;;27.77;8.47;;;;;;;6.35;100.00;100528.97;7386121;19;20414;-61
2022/11/24 09:49:57;;;;;;;33.53;11.40;;;;;;;6.31;100.00;100538.97;7390545;19;20924;-62
2022/11/24 09:52:39;;;;;;;26.60;9.60;;;;;;;6.16;100.00;100542.41;7387368;19;20741;-61
2022/11/24 09:55:21;;;;;;;24.13;7.83;;;;;;;6.06;100.00;100541.00;7388627;19;20419;-61
2022/11/24 09:57:56;;;;;;;18.97;8.80;;;;;;;6.43;100.00;100546.44;7385019;19;20982;-60
2022/11/24 10:00:25;;;;;;;19.57;8.27;;;;;;;6.59;100.00;100541.38;7390393;19;20423;-61
2022/11/24 10:02:55;;;;;;;20.13;7.70;;;;;;;6.54;100.00;100542.78;7385088;19;20418;-59
2022/11/24 10:05:27;;;;;;;21.60;7.53;;;;;;;6.79;100.00;100546.69;7389038;19;20420;-62
2022/11/24 10:08:08;;;;;;;19.17;7.83;;;;;;;6.95;100.00;100547.50;7383634;19;20415;-61
2022/11/24 10:10:44;;;;;;;14.20;7.23;;;;;;;6.97;100.00;100556.16;7390461;19;20735;-60
2022/11/24 10:13:26;;;;;;;24.03;9.53;;;;;;;6.73;100.00;100561.75;7386295;19;20458;-61
2022/11/24 10:16:01;;;;;;;22.23;7.67;;;;;;;6.57;100.00;100566.00;7387853;19;20459;-62
2022/11/24 10:18:39;;;;;;;22.50;7.33;;;;;;;6.46;100.00;100562.00;7382935;19;21019;-61
2022/11/24 10:21:24;;;;;;;20.13;7.07;;;;;;;6.43;100.00;100566.94;7394318;19;20909;-59
2022/11/24 10:24:08;;;;;;;19.23;8.07;;;;;;;6.47;100.00;100571.44;7388605;19;20458;-60
2022/11/24 10:26:40;;;;;;;18.60;6.10;;;;;;;6.48;100.00;100570.66;7383535;19;20411;-59
2022/11/24 10:29:18;;;;;;;16.83;6.77;;;;;;;6.53;100.00;100576.91;7388922;19;20398;-57
2022/11/24 10:31:49;;;;;;;17.33;7.33;;;;;;;6.57;100.00;100570.28;7367475;19;20423;-60
2022/11/24 10:34:20;;;;;;;16.03;7.47;;;;;;;6.56;100.00;100574.50;7388223;19;20441;-59
2022/11/24 10:36:55;;;;;;;25.50;7.87;;;;;;;6.56;100.00;100579.63;7392044;19;20783;-59
2022/11/24 10:39:31;;;;;;;20.83;6.93;;;;;;;6.68;100.00;100583.69;7396646;19;20422;-60
2022/11/24 10:42:06;;;;;;;28.97;7.67;;;;;;;6.74;100.00;100584.91;7393895;19;20480;-61
2022/11/24 10:44:35;;;;;;;20.57;7.77;;;;;;;6.77;100.00;100583.31;7395612;19;20419;-56
2022/11/24 10:47:05;;;;;;;21.70;6.60;;;;;;;6.76;100.00;100582.41;7392188;19;20529;-52
2022/11/24 10:49:34;;;;;;;19.60;6.90;;;;;;;6.87;100.00;100586.44;7396025;19;20754;-51
2022/11/24 10:52:08;;;;;;;29.87;9.07;;;;;;;6.86;100.00;100578.66;7395486;19;20497;-55
2022/11/24 10:54:55;;;;;;;25.10;7.70;;;;;;;6.86;100.00;100582.13;7394639;19;20423;-58
2022/11/24 10:57:33;;;;;;;16.40;6.73;;;;;;;6.90;100.00;100585.72;7388913;19;20426;-59
2022/11/24 11:00:05;;;;;;;27.33;8.50;;;;;;;6.87;100.00;100589.00;7396009;19;20383;-59
2022/11/24 11:02:38;;;;;;;22.77;9.07;;;;;;;6.94;100.00;100586.78;7384823;19;20988;-58
2022/11/24 11:05:33;;;;;;;30.80;10.30;;;;;;;6.97;100.00;100590.38;7394397;19;20809;-56
2022/11/24 11:08:18;;;;;;;29.87;9.40;;;;;;;6.95;100.00;100588.53;7389644;19;20426;-57
2022/11/24 11:10:52;;;;;;;20.67;7.83;;;;;;;6.95;100.00;100586.88;7394635;19;20424;-60
2022/11/24 11:13:27;;;;;;;27.20;10.30;;;;;;;7.01;100.00;100591.44;7392727;19;20407;-59
2022/11/24 11:15:57;;;;;;;17.00;7.80;;;;;;;7.16;100.00;100593.94;7392483;19;20426;-56
2022/11/24 11:18:32;;;;;;;26.30;8.53;;;;;;;7.16;100.00;100592.25;7389883;19;20781;-56
2022/11/24 11:21:03;;;;;;;23.03;8.27;;;;;;;7.29;100.00;100590.34;7394807;19;20383;-59
2022/11/24 11:23:35;;;;;;;25.83;8.50;;;;;;;7.48;100.00;100597.31;7392685;19;20411;-57
2022/11/24 11:26:36;;;;;;;34.37;9.97;;;;;;;7.43;100.00;100599.63;7392400;19;20973;-55
2022/11/24 11:29:18;;;;;;;25.30;8.40;;;;;;;7.45;100.00;100607.44;7397873;19;20439;-57
2022/11/24 11:32:21;;;;;;;25.23;7.80;;;;;;;7.56;100.00;100616.56;7390125;19;20406;-60
2022/11/24 11:35:13;;;;;;;25.93;7.77;;;;;;;7.62;100.00;100604.81;7394550;19;20432;-57
2022/11/24 11:37:43;;;;;;;25.97;7.67;;;;;;;7.62;100.00;100604.81;7388939;19;20419;-60
2022/11/24 11:40:18;;;;;;;17.80;7.03;;;;;;;7.68;100.00;100606.03;7394333;19;20395;-60